Ventura — 9HKL8 — position and weather

sailwx.info

Track history (hours):
 
Tides and Currents Weather Stations Pressure Air Temp Water Temp Dewpoint Dewpoint Depression Visibility Wind Speed Wind Dir Waves Ship Positions

Ventura

Last reported at 2017-Oct-23 03:11 UTC. Time now 2017-Oct-23 04:32 UTC.
Position N 16°16' W 062°46'.

Length 289 m; draft 10.4 m.

Type: Cargo ship. MMSI: 256080000.

Date/timePositionNaut miles runAvg speedWind from/ knotsBaromVisibWave heightAir tempDewpointWater temp
2017-Oct-23 03:11N 16°16' W 062°46'313.4
2017-Oct-23 03:00N 16°16' W 062°43'2113.3
2017-Oct-23 01:26N 16°22' W 062°23'613.0
2017-Oct-23 01:00N 16°23' W 062°17'713.4
2017-Oct-23 00:30N 16°26' W 062°10'713.3
2017-Oct-23 00:00N 16°29' W 062°04'713.2
2017-Oct-22 23:30N 16°32' W 061°58'713.0
2017-Oct-22 23:00N 16°35' W 061°52'713.3
2017-Oct-22 22:30N 16°38' W 061°46'713.0
2017-Oct-22 22:00N 16°41' W 061°40'713.2
2017-Oct-22 21:30N 16°44' W 061°34'713.5
2017-Oct-22 21:01N 16°47' W 061°27'713.5
2017-Oct-22 20:30N 16°50' W 061°21'713.6
2017-Oct-22 20:00N 16°53' W 061°15'713.7
2017-Oct-22 19:30N 16°56' W 061°08'713.4
2017-Oct-22 19:00N 16°59' W 061°02'713.3
2017-Oct-22 18:30N 17°01' W 060°55'  
2017-Oct-14 18:35N 31°31' W 018°48'112.5
2017-Oct-14 18:30N 31°31' W 018°47'10612.8
2017-Oct-14 10:14N 32°09' W 016°51'413.1
2017-Oct-14 09:57N 32°10' W 016°47'1712.9
2017-Oct-14 08:40N 32°16' W 016°28'6112.9
2017-Oct-14 03:58N 32°40' W 015°22'812.6
2017-Oct-14 03:22N 32°43' W 015°14'912.6
2017-Oct-14 02:36N 32°47' W 015°04'112.6
2017-Oct-14 02:31N 32°47' W 015°02'1312.7
2017-Oct-14 01:27N 32°53' W 014°48'712.9
2017-Oct-14 00:56N 32°55' W 014°40'512.8
2017-Oct-14 00:30N 32°57' W 014°34'712.6
2017-Oct-13 23:55N 33°00' W 014°26'512.7
2017-Oct-13 23:29N 33°03' W 014°20'612.8
2017-Oct-13 23:01N 33°05' W 014°14'612.6
2017-Oct-13 22:30N 33°08' W 014°07'912.6
2017-Oct-13 21:47N 33°11' W 013°57'412.7
2017-Oct-13 21:27N 33°13' W 013°52'612.9
2017-Oct-13 21:00N 33°15' W 013°46'1813.0
2017-Oct-13 19:38N 33°22' W 013°26'1012.9
2017-Oct-13 18:52N 33°26' W 013°15'1213.1
2017-Oct-13 17:57N 33°31' W 013°02'612.9
2017-Oct-13 17:30N 33°33' W 012°56'713.0
2017-Oct-13 16:56N 33°36' W 012°47'613.1
2017-Oct-13 16:30N 33°39' W 012°41'713.1
2017-Oct-13 15:58N 33°42' W 012°34'613.1
2017-Oct-13 15:30N 33°44' W 012°27'5713.0
2017-Oct-13 11:05N 34°07' W 011°23'113.0
2017-Oct-13 11:00N 34°07' W 011°22'712.9
2017-Oct-13 10:29N 34°10' W 011°15'912.8
2017-Oct-13 09:46N 34°13' W 011°05'413.0
2017-Oct-13 09:30N 34°15' W 011°01'612.8
2017-Oct-13 09:00N 34°17' W 010°54'712.8
2017-Oct-13 08:28N 34°20' W 010°46'3613.0
2017-Oct-13 05:41N 34°35' W 010°06'212.8
2017-Oct-13 05:29N 34°36' W 010°03'1312.6
2017-Oct-13 04:29N 34°41' W 009°49'612.9
2017-Oct-13 04:00N 34°43' W 009°42'613.0
2017-Oct-13 03:30N 34°46' W 009°35'  
Track history (hours):
 
Tides and Currents Weather Stations Pressure Air Temp Water Temp Dewpoint Dewpoint Depression Visibility Wind Speed Wind Dir Waves Ship Positions

Ventura

Last reported at 2017-Oct-23 03:11 UTC. Time now 2017-Oct-23 04:32 UTC.
Position N 16°16' W 062°46'.

Length 289 m; draft 10.4 m.

Type: Cargo ship. MMSI: 256080000.

Date/timePositionNaut miles runAvg speedWind from/ knotsBaromVisibWave heightAir tempDewpointWater temp
2017-Oct-23 03:11N 16°16' W 062°46'313.4
2017-Oct-23 03:00N 16°16' W 062°43'2113.3
2017-Oct-23 01:26N 16°22' W 062°23'613.0
2017-Oct-23 01:00N 16°23' W 062°17'713.4
2017-Oct-23 00:30N 16°26' W 062°10'713.3
2017-Oct-23 00:00N 16°29' W 062°04'713.2
2017-Oct-22 23:30N 16°32' W 061°58'713.0
2017-Oct-22 23:00N 16°35' W 061°52'713.3
2017-Oct-22 22:30N 16°38' W 061°46'713.0
2017-Oct-22 22:00N 16°41' W 061°40'713.2
2017-Oct-22 21:30N 16°44' W 061°34'713.5
2017-Oct-22 21:01N 16°47' W 061°27'713.5
2017-Oct-22 20:30N 16°50' W 061°21'713.6
2017-Oct-22 20:00N 16°53' W 061°15'713.7
2017-Oct-22 19:30N 16°56' W 061°08'713.4
2017-Oct-22 19:00N 16°59' W 061°02'713.3
2017-Oct-22 18:30N 17°01' W 060°55'  
2017-Oct-14 18:35N 31°31' W 018°48'112.5
2017-Oct-14 18:30N 31°31' W 018°47'10612.8
2017-Oct-14 10:14N 32°09' W 016°51'413.1
2017-Oct-14 09:57N 32°10' W 016°47'1712.9
2017-Oct-14 08:40N 32°16' W 016°28'6112.9
2017-Oct-14 03:58N 32°40' W 015°22'812.6
2017-Oct-14 03:22N 32°43' W 015°14'912.6
2017-Oct-14 02:36N 32°47' W 015°04'112.6
2017-Oct-14 02:31N 32°47' W 015°02'1312.7
2017-Oct-14 01:27N 32°53' W 014°48'712.9
2017-Oct-14 00:56N 32°55' W 014°40'512.8
2017-Oct-14 00:30N 32°57' W 014°34'712.6
2017-Oct-13 23:55N 33°00' W 014°26'512.7
2017-Oct-13 23:29N 33°03' W 014°20'612.8
2017-Oct-13 23:01N 33°05' W 014°14'612.6
2017-Oct-13 22:30N 33°08' W 014°07'912.6
2017-Oct-13 21:47N 33°11' W 013°57'412.7
2017-Oct-13 21:27N 33°13' W 013°52'612.9
2017-Oct-13 21:00N 33°15' W 013°46'1813.0
2017-Oct-13 19:38N 33°22' W 013°26'1012.9
2017-Oct-13 18:52N 33°26' W 013°15'1213.1
2017-Oct-13 17:57N 33°31' W 013°02'612.9
2017-Oct-13 17:30N 33°33' W 012°56'713.0
2017-Oct-13 16:56N 33°36' W 012°47'613.1
2017-Oct-13 16:30N 33°39' W 012°41'713.1
2017-Oct-13 15:58N 33°42' W 012°34'613.1
2017-Oct-13 15:30N 33°44' W 012°27'5713.0
2017-Oct-13 11:05N 34°07' W 011°23'113.0
2017-Oct-13 11:00N 34°07' W 011°22'712.9
2017-Oct-13 10:29N 34°10' W 011°15'912.8
2017-Oct-13 09:46N 34°13' W 011°05'413.0
2017-Oct-13 09:30N 34°15' W 011°01'612.8
2017-Oct-13 09:00N 34°17' W 010°54'712.8
2017-Oct-13 08:28N 34°20' W 010°46'3613.0
2017-Oct-13 05:41N 34°35' W 010°06'212.8
2017-Oct-13 05:29N 34°36' W 010°03'1312.6
2017-Oct-13 04:29N 34°41' W 009°49'612.9
2017-Oct-13 04:00N 34°43' W 009°42'613.0
2017-Oct-13 03:30N 34°46' W 009°35'  

Dump ship's entire track history